createdAt,value
2022-12-01T00:01:07.324Z,517.25
2022-12-01T00:03:35.193Z,506.23
2022-12-01T00:06:07.213Z,506.73
2022-12-01T00:08:34.100Z,504.65
2022-12-01T00:11:09.080Z,505.35
2022-12-01T00:13:36.567Z,507.20
2022-12-01T00:16:14.208Z,506.67
2022-12-01T00:18:41.626Z,509.75
2022-12-01T00:21:18.740Z,508.17
2022-12-01T00:23:47.459Z,509.05
2022-12-01T00:26:14.939Z,508.00
2022-12-01T00:28:41.599Z,517.10
2022-12-01T00:31:09.139Z,515.22
2022-12-01T00:33:35.983Z,517.55
2022-12-01T00:36:03.435Z,520.28
2022-12-01T00:38:30.240Z,520.40
2022-12-01T00:40:56.937Z,516.40
2022-12-01T00:43:24.951Z,517.47
2022-12-01T00:45:51.932Z,520.17
2022-12-01T00:48:20.753Z,519.70
2022-12-01T00:50:47.748Z,516.70
2022-12-01T00:53:14.323Z,521.25
2022-12-01T00:55:40.856Z,518.75
2022-12-01T00:58:07.642Z,522.35
2022-12-01T01:00:34.278Z,520.05
2022-12-01T01:03:00.848Z,522.07
2022-12-01T01:05:27.437Z,519.85
2022-12-01T01:07:54.140Z,516.50
2022-12-01T01:10:20.757Z,519.63
2022-12-01T01:12:47.325Z,517.90
2022-12-01T01:15:13.998Z,512.20
2022-12-01T01:17:40.643Z,509.33
2022-12-01T01:20:07.775Z,509.45
2022-12-01T01:22:35.278Z,508.23
2022-12-01T01:25:01.862Z,509.42
2022-12-01T01:27:28.431Z,514.80
2022-12-01T01:29:54.946Z,512.90
2022-12-01T01:32:21.754Z,513.03
2022-12-01T01:34:48.457Z,516.75
2022-12-01T01:37:15.029Z,511.05
2022-12-01T01:39:41.801Z,515.03
2022-12-01T01:42:12.840Z,512.03
2022-12-01T01:44:54.682Z,515.70
2022-12-01T01:47:28.426Z,522.70
2022-12-01T01:49:57.193Z,522.05
2022-12-01T01:52:24.583Z,517.90
2022-12-01T01:54:55.391Z,519.53
2022-12-01T01:57:42.012Z,520.03
2022-12-01T02:00:12.839Z,515.30
2022-12-01T02:02:44.260Z,516.97
2022-12-01T02:05:20.395Z,516.20
2022-12-01T02:07:47.921Z,516.20
2022-12-01T02:10:22.256Z,514.95
2022-12-01T02:13:20.473Z,513.17
2022-12-01T02:16:18.842Z,511.50
2022-12-01T02:19:43.269Z,513.87
2022-12-01T02:22:27.804Z,514.35
2022-12-01T02:25:18.484Z,515.25
2022-12-01T02:28:03.957Z,511.63
2022-12-01T02:30:58.297Z,515.42
2022-12-01T02:33:50.852Z,513.28
2022-12-01T02:36:20.910Z,518.75
2022-12-01T02:38:55.668Z,523.30
2022-12-01T02:41:24.782Z,519.28
2022-12-01T02:44:16.379Z,516.75
2022-12-01T02:46:54.525Z,526.95
2022-12-01T02:49:26.428Z,518.10
2022-12-01T02:51:55.773Z,518.70
2022-12-01T02:54:24.110Z,518.92
2022-12-01T02:56:54.163Z,519.17
2022-12-01T02:59:20.756Z,518.30
2022-12-01T03:01:52.139Z,513.47
2022-12-01T03:04:30.833Z,515.60
2022-12-01T03:07:35.360Z,520.70
2022-12-01T03:10:21.100Z,515.78
2022-12-01T03:13:06.845Z,486.90
2022-12-01T03:15:45.888Z,521.70
2022-12-01T03:18:18.411Z,519.13
2022-12-01T03:20:58.874Z,516.10
2022-12-01T03:23:30.181Z,514.30
2022-12-01T03:25:59.067Z,514.63
2022-12-01T03:28:32.559Z,518.95
2022-12-01T03:31:05.238Z,514.35
2022-12-01T03:33:36.712Z,509.83
2022-12-01T03:36:25.979Z,507.48
2022-12-01T03:39:00.236Z,513.08
2022-12-01T03:41:42.212Z,519.70
2022-12-01T03:44:16.683Z,517.83
2022-12-01T03:46:55.375Z,516.22
2022-12-01T03:49:24.754Z,517.87
2022-12-01T03:52:19.333Z,523.08
2022-12-01T03:54:57.811Z,517.58
2022-12-01T03:57:30.339Z,514.38
2022-12-01T03:59:57.171Z,518.08
2022-12-01T04:02:27.699Z,520.58
2022-12-01T04:04:54.400Z,527.10
2022-12-01T04:07:21.912Z,523.15
2022-12-01T04:09:49.005Z,520.58
2022-12-01T04:12:32.744Z,520.40
2022-12-01T04:15:01.683Z,522.35
2022-12-01T04:17:28.834Z,522.63
2022-12-01T04:19:55.510Z,521.93
2022-12-01T04:22:23.115Z,520.40
2022-12-01T04:24:49.785Z,522.92
2022-12-01T04:27:16.554Z,520.22
2022-12-01T04:29:43.229Z,516.42
2022-12-01T04:32:09.856Z,509.58
2022-12-01T04:34:36.729Z,507.48
2022-12-01T04:37:04.302Z,501.67
2022-12-01T04:39:30.872Z,505.97
2022-12-01T04:41:57.436Z,509.55
2022-12-01T04:44:24.188Z,511.50
2022-12-01T04:46:52.333Z,509.75
2022-12-01T04:49:20.248Z,516.30
2022-12-01T04:51:46.987Z,520.57
2022-12-01T04:54:14.322Z,517.00
2022-12-01T04:56:41.442Z,522.15
2022-12-01T04:59:08.652Z,515.00
2022-12-01T05:01:35.351Z,518.45
2022-12-01T05:04:02.558Z,508.95
2022-12-01T05:06:29.552Z,508.40
2022-12-01T05:08:58.180Z,495.85
2022-12-01T05:11:25.821Z,506.35
2022-12-01T05:13:52.699Z,502.95
2022-12-01T05:16:22.239Z,504.02
2022-12-01T05:18:50.712Z,497.45
2022-12-01T05:21:18.163Z,504.90
2022-12-01T05:23:45.646Z,507.20
2022-12-01T05:26:12.183Z,500.52
2022-12-01T05:28:40.808Z,493.85
2022-12-01T05:31:07.438Z,505.63
2022-12-01T05:33:34.093Z,496.23
2022-12-01T05:36:00.816Z,500.08
2022-12-01T05:38:30.388Z,499.65
2022-12-01T05:40:56.954Z,492.05
2022-12-01T05:43:29.031Z,505.50
2022-12-01T05:45:56.832Z,505.00
2022-12-01T05:48:23.767Z,505.15
2022-12-01T05:50:50.447Z,500.92
2022-12-01T05:53:17.074Z,510.30
2022-12-01T05:55:43.775Z,505.77
2022-12-01T05:58:11.034Z,504.77
2022-12-01T06:00:45.801Z,505.48
2022-12-01T06:03:13.522Z,496.40
2022-12-01T06:05:40.755Z,494.75
2022-12-01T06:08:08.056Z,490.17
2022-12-01T06:10:34.737Z,491.58
2022-12-01T06:13:01.467Z,492.73
2022-12-01T06:15:28.449Z,488.70
2022-12-01T06:17:55.128Z,488.10
2022-12-01T06:20:23.303Z,481.57
2022-12-01T06:22:49.947Z,483.73
2022-12-01T06:25:16.622Z,489.58
2022-12-01T06:27:43.183Z,490.23
2022-12-01T06:30:10.084Z,477.52
2022-12-01T06:32:36.750Z,484.17
2022-12-01T06:35:03.461Z,493.00
2022-12-01T06:37:30.113Z,490.38
2022-12-01T06:39:56.678Z,479.65
2022-12-01T06:42:23.471Z,486.08
2022-12-01T06:44:50.096Z,481.15
2022-12-01T06:47:16.697Z,484.38
2022-12-01T06:49:43.275Z,481.67
2022-12-01T06:52:10.407Z,483.52
2022-12-01T06:54:37.469Z,484.60
2022-12-01T06:57:04.651Z,492.83
2022-12-01T06:59:31.608Z,494.47
2022-12-01T07:01:58.981Z,506.02
2022-12-01T07:04:25.679Z,502.00
2022-12-01T07:06:52.304Z,499.38
2022-12-01T07:09:19.031Z,491.63
2022-12-01T07:11:45.564Z,495.57
2022-12-01T07:14:23.614Z,500.92
2022-12-01T07:16:50.803Z,488.48
2022-12-01T07:19:17.518Z,496.42
2022-12-01T07:21:44.161Z,491.15
2022-12-01T07:24:12.521Z,489.77
2022-12-01T07:26:40.260Z,487.83
2022-12-01T07:29:07.559Z,488.13
2022-12-01T07:31:34.256Z,482.40
2022-12-01T07:34:00.804Z,482.27
2022-12-01T07:36:27.472Z,483.13
2022-12-01T07:38:54.047Z,484.92
2022-12-01T07:41:20.802Z,477.40
2022-12-01T07:43:50.365Z,487.55
2022-12-01T07:46:23.116Z,489.92
2022-12-01T07:48:51.675Z,472.75
2022-12-01T07:51:18.816Z,469.07
2022-12-01T07:53:47.537Z,478.88
2022-12-01T07:56:14.259Z,472.90
2022-12-01T07:58:41.409Z,461.70
2022-12-01T08:01:09.331Z,471.80
2022-12-01T08:03:36.500Z,465.00
2022-12-01T08:06:03.522Z,476.30
2022-12-01T08:08:32.238Z,471.10
2022-12-01T08:11:05.543Z,469.90
2022-12-01T08:13:32.781Z,474.15
2022-12-01T08:16:02.563Z,473.60
2022-12-01T08:18:29.266Z,477.80
2022-12-01T08:20:58.801Z,471.52
2022-12-01T08:23:25.509Z,465.23
2022-12-01T08:25:55.259Z,463.08
2022-12-01T08:28:21.955Z,468.42
2022-12-01T08:30:48.590Z,458.63
2022-12-01T08:33:15.283Z,465.02
2022-12-01T08:35:41.844Z,459.92
2022-12-01T08:38:09.398Z,461.70
2022-12-01T08:40:36.322Z,465.02
2022-12-01T08:43:03.088Z,467.13
2022-12-01T08:45:29.761Z,463.50
2022-12-01T08:48:00.026Z,455.42
2022-12-01T08:50:27.141Z,459.30
2022-12-01T08:52:53.763Z,466.85
2022-12-01T08:55:21.881Z,465.38
2022-12-01T08:57:48.439Z,467.70
2022-12-01T09:00:16.292Z,470.85
2022-12-01T09:02:42.921Z,469.88
2022-12-01T09:05:09.803Z,471.48
2022-12-01T09:07:36.641Z,471.38
2022-12-01T09:10:04.296Z,472.98
2022-12-01T09:12:30.915Z,467.90
2022-12-01T09:14:57.566Z,476.80
2022-12-01T09:17:24.064Z,465.37
2022-12-01T09:19:51.027Z,462.63
2022-12-01T09:22:17.901Z,468.13
2022-12-01T09:24:44.438Z,477.80
2022-12-01T09:27:10.968Z,480.17
2022-12-01T09:29:37.613Z,465.90
2022-12-01T09:32:04.225Z,465.45
2022-12-01T09:34:30.904Z,460.77
2022-12-01T09:36:58.497Z,462.43
2022-12-01T09:39:25.688Z,462.37
2022-12-01T09:42:22.249Z,459.75
2022-12-01T09:44:52.940Z,463.70
2022-12-01T09:47:29.857Z,461.80
2022-12-01T09:50:27.406Z,461.10
2022-12-01T09:52:59.833Z,471.05
2022-12-01T09:55:28.767Z,474.95
2022-12-01T09:57:57.633Z,468.23
2022-12-01T10:00:40.185Z,470.52
2022-12-01T10:03:22.031Z,473.65
2022-12-01T10:06:25.143Z,468.48
2022-12-01T10:08:43.994Z,457.50
2022-12-01T10:11:29.167Z,455.30
2022-12-01T10:13:55.800Z,455.50
2022-12-01T10:16:31.651Z,448.05
2022-12-01T10:19:32.888Z,461.52
2022-12-01T10:22:23.662Z,455.98
2022-12-01T10:24:59.965Z,448.10
2022-12-01T10:27:38.464Z,457.27
2022-12-01T10:30:16.945Z,456.20
2022-12-01T10:33:01.875Z,462.95
2022-12-01T10:35:36.035Z,465.13
2022-12-01T10:38:06.748Z,457.40
2022-12-01T10:40:36.524Z,469.55
2022-12-01T10:43:03.382Z,465.30
2022-12-01T10:45:37.278Z,464.45
2022-12-01T10:48:17.537Z,466.40
2022-12-01T10:50:48.383Z,462.60
2022-12-01T10:53:28.256Z,456.40
2022-12-01T10:56:06.315Z,467.20
2022-12-01T10:58:43.801Z,474.10
2022-12-01T11:01:22.012Z,468.75
2022-12-01T11:03:57.537Z,457.60
2022-12-01T11:06:28.033Z,465.02
2022-12-01T11:09:01.043Z,465.60
2022-12-01T11:11:40.508Z,472.10
2022-12-01T11:14:23.778Z,468.45
2022-12-01T11:16:53.978Z,468.98
2022-12-01T11:19:33.897Z,454.65
2022-12-01T11:22:03.326Z,458.25
2022-12-01T11:24:29.888Z,463.13
2022-12-01T11:27:00.530Z,468.47
2022-12-01T11:29:36.197Z,470.30
2022-12-01T11:32:22.778Z,464.98
2022-12-01T11:35:03.639Z,455.95
2022-12-01T11:37:38.987Z,466.58
2022-12-01T11:40:13.661Z,457.85
2022-12-01T11:42:41.442Z,455.67
2022-12-01T11:45:21.210Z,454.45
2022-12-01T11:48:16.593Z,457.38
2022-12-01T11:50:45.217Z,454.42
2022-12-01T11:53:32.682Z,441.23
2022-12-01T11:56:28.593Z,444.35
2022-12-01T11:59:03.839Z,460.95
2022-12-01T12:01:42.528Z,460.52
2022-12-01T12:04:30.709Z,465.00
2022-12-01T12:07:13.313Z,465.15
2022-12-01T12:09:55.200Z,462.30
2022-12-01T12:12:49.543Z,468.67
2022-12-01T12:15:28.771Z,468.88
2022-12-01T12:18:29.235Z,465.33
2022-12-01T12:21:29.406Z,465.65
2022-12-01T12:24:03.352Z,475.58
2022-12-01T12:26:35.257Z,461.55
2022-12-01T12:29:37.914Z,470.90
2022-12-01T12:32:28.356Z,474.08
2022-12-01T12:35:23.574Z,470.00
2022-12-01T12:38:02.719Z,478.17
2022-12-01T12:40:41.852Z,470.30
2022-12-01T12:43:27.366Z,484.50
2022-12-01T12:46:09.174Z,459.40
2022-12-01T12:49:19.611Z,458.63
2022-12-01T12:51:56.803Z,456.13
2022-12-01T12:54:43.314Z,467.70
2022-12-01T12:57:35.004Z,475.48
2022-12-01T13:00:05.070Z,468.98
2022-12-01T13:02:43.889Z,465.00
2022-12-01T13:05:19.403Z,471.42
2022-12-01T13:07:46.070Z,461.08
2022-12-01T13:10:44.926Z,468.52
2022-12-01T13:13:25.773Z,473.10
2022-12-01T13:15:55.813Z,474.00
2022-12-01T13:18:30.128Z,477.60
2022-12-01T13:20:57.843Z,468.45
2022-12-01T13:23:25.297Z,469.40
2022-12-01T13:25:56.158Z,476.65
2022-12-01T13:28:53.995Z,469.55
2022-12-01T13:31:21.993Z,471.27
2022-12-01T13:34:03.895Z,470.92
2022-12-01T13:36:46.640Z,463.88
2022-12-01T13:39:40.547Z,458.83
2022-12-01T13:42:23.716Z,459.65
2022-12-01T13:44:56.973Z,469.63
2022-12-01T13:47:31.661Z,471.45
2022-12-01T13:50:36.181Z,474.50
2022-12-01T13:53:30.516Z,472.08
2022-12-01T13:56:03.444Z,478.77
2022-12-01T13:58:33.178Z,473.50
2022-12-01T14:01:21.821Z,481.58
2022-12-01T14:03:57.826Z,481.57
2022-12-01T14:06:51.151Z,492.48
2022-12-01T14:09:24.041Z,462.63
2022-12-01T14:12:17.548Z,462.52
2022-12-01T14:14:57.127Z,465.23
2022-12-01T14:17:33.882Z,470.17
2022-12-01T14:20:19.663Z,469.65
2022-12-01T14:23:13.101Z,478.93
2022-12-01T14:25:41.547Z,474.58
2022-12-01T14:28:19.442Z,475.95
2022-12-01T14:30:46.099Z,486.00
2022-12-01T14:33:42.609Z,473.70
2022-12-01T14:36:24.593Z,456.83
2022-12-01T14:38:54.401Z,459.95
2022-12-01T14:41:45.748Z,465.73
2022-12-01T14:44:17.567Z,462.15
2022-12-01T14:46:51.574Z,470.23
2022-12-01T14:49:24.119Z,464.27
2022-12-01T14:52:06.947Z,457.73
2022-12-01T14:54:45.309Z,469.43
2022-12-01T14:57:17.227Z,470.88
2022-12-01T14:59:44.830Z,462.38
2022-12-01T15:02:12.416Z,458.77
2022-12-01T15:05:27.519Z,471.83
2022-12-01T15:08:18.643Z,460.88
2022-12-01T15:11:00.462Z,476.88
2022-12-01T15:13:30.265Z,461.80
2022-12-01T15:16:02.437Z,453.85
2022-12-01T15:18:31.591Z,456.20
2022-12-01T15:21:06.977Z,457.58
2022-12-01T15:23:33.891Z,468.45
2022-12-01T15:26:00.465Z,486.50
2022-12-01T15:28:35.397Z,486.33
2022-12-01T15:31:10.305Z,475.13
2022-12-01T15:33:39.015Z,475.95
2022-12-01T15:36:07.373Z,476.35
2022-12-01T15:38:36.853Z,488.38
2022-12-01T15:41:28.400Z,478.95
2022-12-01T15:43:58.343Z,485.30
2022-12-01T15:46:36.921Z,476.85
2022-12-01T15:49:29.292Z,475.52
2022-12-01T15:52:10.963Z,466.73
2022-12-01T15:54:38.917Z,471.85
2022-12-01T15:57:06.839Z,489.80
2022-12-01T15:59:40.889Z,485.58
2022-12-01T16:02:31.269Z,491.55
2022-12-01T16:05:13.281Z,496.40
2022-12-01T16:08:11.491Z,491.93
2022-12-01T16:10:28.707Z,497.73
2022-12-01T16:13:33.880Z,492.25
2022-12-01T16:16:00.660Z,495.58
2022-12-01T16:18:34.470Z,504.00
2022-12-01T16:21:04.177Z,499.10
2022-12-01T16:23:32.045Z,498.02
2022-12-01T16:43:39.296Z,484.08
2022-12-01T16:46:19.222Z,479.63
2022-12-01T16:54:54.216Z,470.90
2022-12-01T16:57:21.454Z,477.20
2022-12-01T16:59:49.699Z,482.02
2022-12-01T17:02:18.288Z,479.30
2022-12-01T17:04:45.093Z,481.92
2022-12-01T17:07:11.831Z,479.42
2022-12-01T17:09:38.436Z,480.05
2022-12-01T17:12:05.373Z,480.30
2022-12-01T17:14:32.001Z,475.00
2022-12-01T17:16:58.668Z,484.20
2022-12-01T17:19:25.196Z,470.67
2022-12-01T17:21:52.838Z,479.50
2022-12-01T17:24:19.564Z,466.55
2022-12-01T17:26:46.268Z,466.67
2022-12-01T17:29:12.849Z,475.80
2022-12-01T17:31:39.658Z,471.83
2022-12-01T17:34:06.280Z,475.85
2022-12-01T17:36:34.403Z,466.65
2022-12-01T17:39:00.953Z,470.13
2022-12-01T17:41:32.348Z,471.73
2022-12-01T17:44:01.515Z,471.55
2022-12-01T17:46:28.205Z,465.27
2022-12-01T17:48:54.873Z,472.70
2022-12-01T17:51:21.751Z,459.38
2022-12-01T17:53:48.397Z,457.73
2022-12-01T17:56:16.684Z,448.27
2022-12-01T17:58:43.875Z,445.13
2022-12-01T18:01:16.964Z,438.33
2022-12-01T18:03:43.983Z,447.40
2022-12-01T18:06:12.124Z,451.85
2022-12-01T18:08:39.763Z,448.98
2022-12-01T18:11:10.212Z,444.52
2022-12-01T18:13:42.121Z,447.17
2022-12-01T18:16:14.578Z,448.63
2022-12-01T18:18:42.039Z,465.80
2022-12-01T18:21:11.058Z,464.13
2022-12-01T18:23:37.860Z,454.50
2022-12-01T18:26:16.259Z,472.05
2022-12-01T18:28:43.876Z,458.10
2022-12-01T18:31:13.147Z,461.50
2022-12-01T18:33:42.092Z,468.70
2022-12-01T18:36:16.870Z,464.63
2022-12-01T18:38:44.560Z,469.75
2022-12-01T18:41:11.182Z,473.70
2022-12-01T18:43:37.786Z,459.00
2022-12-01T18:46:05.809Z,459.63
2022-12-01T18:48:33.784Z,461.65
2022-12-01T18:51:04.532Z,448.67
2022-12-01T18:53:31.898Z,446.92
2022-12-01T18:56:05.498Z,439.03
2022-12-01T18:58:32.568Z,446.85
2022-12-01T19:01:00.228Z,455.67
2022-12-01T19:03:33.404Z,464.37
2022-12-01T19:06:00.746Z,462.13
2022-12-01T19:08:27.411Z,462.65
2022-12-01T19:11:00.071Z,467.17
2022-12-01T19:13:27.735Z,456.92
2022-12-01T19:15:54.364Z,452.13
2022-12-01T19:18:21.100Z,460.15
2022-12-01T19:20:48.500Z,467.08
2022-12-01T19:23:15.849Z,470.60
2022-12-01T19:25:43.746Z,475.35
2022-12-01T19:28:10.499Z,468.65
2022-12-01T19:30:37.269Z,463.40
2022-12-01T19:33:04.117Z,454.73
2022-12-01T19:35:31.686Z,462.67
2022-12-01T19:37:58.639Z,455.42
2022-12-01T19:40:25.336Z,446.25
2022-12-01T19:42:52.643Z,439.60
2022-12-01T19:45:19.530Z,441.27
2022-12-01T19:47:46.818Z,451.48
2022-12-01T19:50:13.688Z,440.60
2022-12-01T19:52:41.518Z,450.00
2022-12-01T19:55:10.675Z,448.98
2022-12-01T19:57:37.886Z,456.00
2022-12-01T20:00:05.116Z,460.50
2022-12-01T20:02:38.764Z,472.00
2022-12-01T20:05:05.926Z,465.77
2022-12-01T20:07:32.845Z,476.00
2022-12-01T20:09:59.582Z,474.70
2022-12-01T20:12:26.273Z,464.33
2022-12-01T20:14:53.410Z,461.05
2022-12-01T20:17:20.168Z,468.58
2022-12-01T20:19:46.813Z,466.27
2022-12-01T20:22:13.545Z,459.55
2022-12-01T20:24:42.070Z,458.17
2022-12-01T20:27:09.037Z,448.63
2022-12-01T20:29:35.857Z,461.27
2022-12-01T20:32:03.472Z,450.77
2022-12-01T20:34:33.789Z,460.60
2022-12-01T20:37:02.567Z,456.60
2022-12-01T20:39:32.340Z,456.37
2022-12-01T20:41:59.419Z,465.50
2022-12-01T20:44:27.006Z,469.23
2022-12-01T20:46:58.358Z,467.98
2022-12-01T20:49:25.159Z,475.60
2022-12-01T20:51:51.935Z,476.80
2022-12-01T20:54:28.265Z,477.40
2022-12-01T20:56:56.575Z,473.30
2022-12-01T20:59:23.524Z,470.50
2022-12-01T21:01:50.218Z,477.63
2022-12-01T21:04:17.696Z,476.10
2022-12-01T21:06:44.467Z,491.25
2022-12-01T21:09:12.348Z,482.85
2022-12-01T21:12:06.741Z,485.25
2022-12-01T21:14:37.915Z,481.43
2022-12-01T21:17:28.684Z,483.98
2022-12-01T21:20:08.869Z,490.65
2022-12-01T21:22:36.165Z,479.08
2022-12-01T21:25:12.441Z,488.45
2022-12-01T21:27:39.114Z,492.60
2022-12-01T21:30:18.597Z,487.98
2022-12-01T21:32:46.889Z,505.35
2022-12-01T21:35:17.518Z,496.15
2022-12-01T21:37:44.642Z,495.13
2022-12-01T21:40:23.701Z,499.87
2022-12-01T21:42:51.365Z,500.55
2022-12-01T21:45:29.739Z,499.23
2022-12-01T21:48:25.273Z,501.08
2022-12-01T21:51:01.024Z,497.52
2022-12-01T21:53:36.317Z,498.80
2022-12-01T21:56:03.072Z,494.63
2022-12-01T21:58:36.278Z,497.35
2022-12-01T22:01:15.181Z,494.30
2022-12-01T22:03:46.185Z,493.50
2022-12-01T22:06:30.329Z,487.95
2022-12-01T22:09:11.382Z,478.05
2022-12-01T22:11:38.000Z,492.08
2022-12-01T22:14:21.951Z,503.27
2022-12-01T22:17:21.691Z,495.02
2022-12-01T22:20:22.133Z,500.38
2022-12-01T22:22:48.776Z,498.33
2022-12-01T22:25:25.312Z,504.27
2022-12-01T22:27:52.063Z,506.92
2022-12-01T22:30:21.590Z,504.55
2022-12-01T22:33:10.392Z,505.73
2022-12-01T22:35:50.856Z,504.27
2022-12-01T22:38:43.909Z,495.98
2022-12-01T22:41:15.783Z,505.80
2022-12-01T22:43:42.572Z,499.50
2022-12-01T22:46:35.180Z,499.02
2022-12-01T22:49:10.707Z,496.75
2022-12-01T22:51:46.605Z,489.27
2022-12-01T22:54:16.173Z,495.97
2022-12-01T22:56:53.681Z,501.75
2022-12-01T22:59:41.764Z,504.85
2022-12-01T23:02:22.429Z,494.98
2022-12-01T23:04:57.448Z,503.92
2022-12-01T23:07:30.154Z,506.60
2022-12-01T23:10:02.689Z,501.92
2022-12-01T23:12:32.122Z,512.53
2022-12-01T23:15:16.581Z,508.98
2022-12-01T23:17:43.365Z,510.83
2022-12-01T23:20:09.890Z,508.58
2022-12-01T23:22:37.978Z,507.42
2022-12-01T23:25:16.558Z,505.83
2022-12-01T23:27:46.013Z,497.80
2022-12-01T23:30:14.261Z,499.75
2022-12-01T23:32:40.875Z,505.55
2022-12-01T23:35:14.739Z,501.25
2022-12-01T23:37:43.576Z,497.70
2022-12-01T23:40:21.119Z,499.02
2022-12-01T23:42:48.636Z,502.65
2022-12-01T23:45:21.493Z,503.98
2022-12-01T23:47:49.940Z,500.42
2022-12-01T23:50:23.006Z,506.47
2022-12-01T23:52:49.738Z,497.65
2022-12-01T23:55:25.501Z,503.42
2022-12-01T23:57:52.976Z,499.90
